Time;durP1;ratioP1;P1;durP2;ratioP2;P2;SDS_P1;SDS_P2;PMS_P1;PMS_P2;Temp;Humidity;BMP_temperature;BMP_pressure;BME280_temperature;BME280_humidity;BME280_pressure;Samples;Min_cycle;Max_cycle;Signal;HPM_P1;HPM_P2
2022/03/14 00:01:21;;;;;;;14.55;11.57;;;9.00;67.30;;;;;;4996620;28;20122;-68
2022/03/14 00:03:53;;;;;;;14.77;12.20;;;8.90;67.90;;;;;;4998221;28;20037;-69
2022/03/14 00:06:20;;;;;;;14.40;12.02;;;8.90;68.20;;;;;;5012049;28;20078;-69
2022/03/14 00:08:46;;;;;;;13.68;11.25;;;8.80;68.90;;;;;;5027017;28;20034;-68
2022/03/14 00:11:15;;;;;;;13.80;11.48;;;8.90;69.50;;;;;;4995719;28;20042;-68
2022/03/14 00:13:46;;;;;;;12.80;11.20;;;8.80;70.00;;;;;;4993229;28;20690;-69
2022/03/14 00:16:16;;;;;;;14.23;10.50;;;8.90;70.40;;;;;;4996321;28;20077;-68
2022/03/14 00:18:43;;;;;;;13.05;10.77;;;8.80;70.70;;;;;;5006458;28;20058;-69
2022/03/14 00:21:10;;;;;;;12.27;10.25;;;8.80;71.60;;;;;;5002443;28;20442;-69
2022/03/14 00:23:36;;;;;;;11.32;10.13;;;8.80;72.20;;;;;;5026294;28;20607;-69
2022/03/14 00:26:04;;;;;;;10.45;9.20;;;8.90;72.80;;;;;;4996040;28;20054;-69
2022/03/14 00:28:30;;;;;;;10.82;8.32;;;8.90;73.40;;;;;;5025760;28;20478;-69
2022/03/14 00:30:56;;;;;;;9.30;8.30;;;9.00;74.30;;;;;;4990855;28;20049;-69
2022/03/14 00:33:21;;;;;;;8.80;7.90;;;9.00;74.50;;;;;;4998309;28;20070;-69
2022/03/14 00:35:47;;;;;;;8.95;7.63;;;9.00;75.50;;;;;;4992784;28;20039;-69
2022/03/14 00:38:16;;;;;;;10.15;7.43;;;9.10;75.50;;;;;;4995018;28;20053;-68
2022/03/14 00:40:42;;;;;;;8.18;7.05;;;9.20;75.90;;;;;;5026240;28;20050;-69
2022/03/14 00:43:08;;;;;;;7.47;6.15;;;9.30;76.30;;;;;;4997375;28;20041;-69
2022/03/14 00:45:34;;;;;;;6.57;5.90;;;9.30;76.90;;;;;;4993398;28;20057;-69
2022/03/14 00:48:00;;;;;;;7.32;6.38;;;9.40;76.90;;;;;;4992978;28;20670;-69
2022/03/14 00:50:26;;;;;;;7.85;5.57;;;9.40;77.10;;;;;;4995409;28;20101;-69
2022/03/14 00:52:52;;;;;;;7.40;5.55;;;9.50;77.60;;;;;;4996528;28;20057;-69
2022/03/14 00:55:19;;;;;;;5.55;4.95;;;9.50;78.10;;;;;;4994708;28;20040;-69
2022/03/14 00:57:44;;;;;;;10.88;5.50;;;9.50;78.40;;;;;;4997466;28;20039;-69
2022/03/14 01:00:11;;;;;;;5.68;5.03;;;9.50;78.50;;;;;;4997869;28;20056;-69
2022/03/14 01:02:37;;;;;;;9.75;4.97;;;9.60;78.60;;;;;;5027104;28;20693;-69
2022/03/14 01:05:03;;;;;;;5.95;4.80;;;9.60;79.00;;;;;;4998554;28;20143;-69
2022/03/14 01:07:29;;;;;;;6.72;5.47;;;9.60;79.40;;;;;;5026824;28;20506;-69
2022/03/14 01:09:54;;;;;;;5.45;4.95;;;9.60;79.60;;;;;;5003365;28;20037;-69
2022/03/14 01:12:20;;;;;;;6.25;4.28;;;9.60;79.80;;;;;;5000746;28;20380;-69
2022/03/14 01:14:46;;;;;;;5.03;4.53;;;9.70;80.00;;;;;;4999832;28;20030;-69
2022/03/14 01:17:11;;;;;;;6.38;4.75;;;9.70;80.20;;;;;;4995329;28;20187;-69
2022/03/14 01:19:38;;;;;;;5.15;4.65;;;9.60;80.40;;;;;;4997296;28;20052;-69
2022/03/14 01:22:10;;;;;;;6.22;4.72;;;9.70;80.50;;;;;;4997920;28;20096;-69
2022/03/14 01:24:38;;;;;;;7.00;4.95;;;9.70;81.00;;;;;;4999597;28;20121;-69
2022/03/14 01:27:07;;;;;;;6.43;4.80;;;9.70;81.00;;;;;;4999300;28;20097;-69
2022/03/14 01:29:37;;;;;;;6.15;4.97;;;9.70;81.30;;;;;;5003086;28;20026;-69
2022/03/14 01:32:04;;;;;;;5.07;4.57;;;9.70;81.90;;;;;;5025227;28;20144;-69
2022/03/14 01:34:29;;;;;;;4.95;4.40;;;9.70;82.00;;;;;;4995841;28;20532;-69
2022/03/14 01:36:56;;;;;;;5.32;4.28;;;9.70;82.80;;;;;;5025483;28;20050;-68
2022/03/14 01:39:21;;;;;;;4.90;4.35;;;9.70;82.60;;;;;;5028514;28;20080;-68
2022/03/14 01:41:47;;;;;;;4.25;3.85;;;9.70;82.80;;;;;;4995500;28;20070;-68
2022/03/14 01:44:13;;;;;;;5.78;4.28;;;9.70;83.00;;;;;;5000590;28;20038;-68
2022/03/14 01:46:38;;;;;;;5.45;4.85;;;9.80;83.50;;;;;;5025581;28;20042;-68
2022/03/14 01:49:04;;;;;;;6.80;3.65;;;9.70;83.30;;;;;;5032742;28;20401;-69
2022/03/14 01:51:32;;;;;;;4.50;4.07;;;9.80;83.70;;;;;;5030826;28;20181;-69
2022/03/14 01:53:57;;;;;;;5.10;4.18;;;9.80;84.00;;;;;;4996704;28;20041;-68
2022/03/14 01:56:23;;;;;;;4.78;4.03;;;9.90;84.20;;;;;;4991821;28;20053;-68
2022/03/14 01:58:52;;;;;;;4.03;3.63;;;9.80;84.20;;;;;;5000164;28;20064;-68
2022/03/14 02:01:19;;;;;;;4.22;3.83;;;9.80;84.20;;;;;;4997671;28;20448;-68
2022/03/14 02:03:45;;;;;;;4.05;3.65;;;9.80;84.30;;;;;;4999683;28;20136;-68
2022/03/14 02:06:10;;;;;;;4.18;3.50;;;9.80;84.70;;;;;;5024401;28;20050;-68
2022/03/14 02:08:37;;;;;;;4.85;3.67;;;9.80;84.90;;;;;;4999324;28;20045;-68
2022/03/14 02:11:03;;;;;;;3.90;3.45;;;9.80;85.20;;;;;;4996348;28;20043;-68
2022/03/14 02:13:29;;;;;;;4.50;3.45;;;9.80;85.20;;;;;;4996508;28;20067;-68
2022/03/14 02:15:55;;;;;;;3.88;3.50;;;9.80;85.40;;;;;;4999194;28;20459;-68
2022/03/14 02:18:20;;;;;;;3.88;3.47;;;9.80;85.60;;;;;;4998442;28;20301;-68
2022/03/14 02:20:46;;;;;;;5.25;3.95;;;9.80;85.80;;;;;;4996456;28;20087;-68
2022/03/14 02:23:12;;;;;;;5.85;4.05;;;9.80;86.20;;;;;;5026844;28;20049;-68
2022/03/14 02:25:47;;;;;;;3.90;3.50;;;9.70;86.20;;;;;;4999369;28;20046;-69
2022/03/14 02:28:13;;;;;;;3.78;3.38;;;9.70;86.40;;;;;;4997494;28;20436;-68
2022/03/14 02:30:39;;;;;;;4.18;3.78;;;9.70;86.60;;;;;;4997287;28;20066;-68
2022/03/14 02:33:07;;;;;;;4.03;3.63;;;9.60;86.90;;;;;;4998252;28;20073;-68
2022/03/14 02:35:37;;;;;;;4.10;3.70;;;9.70;86.80;;;;;;4998978;28;20069;-68
2022/03/14 02:38:03;;;;;;;4.72;3.80;;;9.70;87.00;;;;;;4998402;28;20104;-68
2022/03/14 02:40:28;;;;;;;4.70;4.05;;;9.70;87.00;;;;;;4997596;28;20046;-68
2022/03/14 02:42:55;;;;;;;5.22;4.07;;;9.70;87.00;;;;;;4998425;28;20066;-68
2022/03/14 02:45:21;;;;;;;4.22;3.60;;;9.70;87.00;;;;;;4997186;28;20030;-68
2022/03/14 02:47:47;;;;;;;4.03;3.47;;;9.70;87.10;;;;;;4999181;28;20048;-68
2022/03/14 02:50:12;;;;;;;4.15;3.67;;;9.70;87.40;;;;;;4998116;28;20042;-69
2022/03/14 02:52:38;;;;;;;4.55;3.25;;;9.70;87.60;;;;;;4995557;28;20053;-69
2022/03/14 02:55:06;;;;;;;4.85;3.78;;;9.70;88.00;;;;;;5025115;28;20378;-69
2022/03/14 02:57:32;;;;;;;3.50;3.13;;;9.70;88.00;;;;;;4996043;28;20046;-69
2022/03/14 02:59:58;;;;;;;3.47;3.17;;;9.60;88.10;;;;;;4998122;28;20362;-69
2022/03/14 03:02:25;;;;;;;4.32;3.25;;;9.70;88.70;;;;;;4993618;28;20045;-68
2022/03/14 03:04:52;;;;;;;4.68;3.00;;;9.70;88.80;;;;;;5026545;28;20096;-69
2022/03/14 03:07:19;;;;;;;3.97;2.92;;;9.80;89.00;;;;;;5001716;28;20065;-69
2022/03/14 03:09:45;;;;;;;3.70;2.72;;;9.80;89.30;;;;;;4979115;28;20464;-69
2022/03/14 03:12:14;;;;;;;3.10;2.70;;;9.80;89.60;;;;;;4996407;28;20104;-69
2022/03/14 03:14:41;;;;;;;3.22;2.65;;;9.80;89.60;;;;;;5027144;28;20038;-68
2022/03/14 03:17:06;;;;;;;3.45;2.90;;;9.80;90.00;;;;;;4997695;28;20480;-68
2022/03/14 03:19:32;;;;;;;3.22;2.92;;;9.80;90.10;;;;;;4998930;28;20081;-69
2022/03/14 03:21:58;;;;;;;3.72;3.42;;;9.80;90.00;;;;;;5011267;28;20046;-69
2022/03/14 03:24:24;;;;;;;3.42;3.13;;;9.80;90.00;;;;;;4996258;28;20112;-69
2022/03/14 03:26:50;;;;;;;3.95;3.10;;;9.80;90.10;;;;;;5025548;28;20112;-69
2022/03/14 03:29:15;;;;;;;4.35;3.30;;;9.90;90.10;;;;;;4995561;28;20139;-69
2022/03/14 03:31:41;;;;;;;5.68;3.50;;;9.80;90.10;;;;;;5028001;28;20030;-69
2022/03/14 03:34:07;;;;;;;5.18;3.08;;;9.80;90.10;;;;;;5024788;28;20042;-68
2022/03/14 03:36:33;;;;;;;5.70;2.85;;;9.80;90.30;;;;;;5028358;28;20172;-68
2022/03/14 03:38:59;;;;;;;3.67;3.25;;;9.80;90.20;;;;;;4993929;28;20042;-68
2022/03/14 03:41:25;;;;;;;3.25;2.72;;;9.80;90.30;;;;;;4997362;28;20080;-68
2022/03/14 03:43:51;;;;;;;3.08;2.78;;;9.80;90.40;;;;;;5025547;28;20050;-69
2022/03/14 03:46:16;;;;;;;3.28;2.85;;;9.80;90.50;;;;;;5011939;28;20058;-68
2022/03/14 03:48:42;;;;;;;3.22;2.80;;;9.80;90.50;;;;;;4994778;28;20144;-68
2022/03/14 03:51:08;;;;;;;3.38;3.08;;;9.70;90.50;;;;;;4998267;28;20038;-69
2022/03/14 03:53:33;;;;;;;3.60;3.08;;;9.70;90.60;;;;;;4998178;28;20120;-69
2022/03/14 03:55:59;;;;;;;3.40;3.10;;;9.70;90.70;;;;;;5027486;28;20389;-69
2022/03/14 03:58:25;;;;;;;3.35;2.97;;;9.70;90.80;;;;;;5027989;28;20080;-69
2022/03/14 04:00:53;;;;;;;3.47;2.90;;;9.70;90.90;;;;;;5027219;28;20054;-69
2022/03/14 04:03:20;;;;;;;3.83;3.10;;;9.70;91.00;;;;;;4996069;28;20173;-69
2022/03/14 04:05:47;;;;;;;3.70;3.00;;;9.70;91.00;;;;;;5012826;28;20061;-68
2022/03/14 04:08:13;;;;;;;3.95;2.97;;;9.60;91.00;;;;;;4993104;28;20058;-68
2022/03/14 04:10:43;;;;;;;4.32;3.13;;;9.60;91.20;;;;;;4995851;28;20377;-68
2022/03/14 04:13:09;;;;;;;3.30;2.45;;;9.60;91.30;;;;;;4997627;28;20171;-68
2022/03/14 04:15:44;;;;;;;2.65;2.45;;;9.60;91.50;;;;;;4994729;28;20043;-69
2022/03/14 04:18:10;;;;;;;;;;;9.60;91.40;;;;;;5013088;28;20177;-69
2022/03/14 04:20:36;;;;;;;2.88;2.50;;;9.60;91.50;;;;;;4993165;28;20001;-69
2022/03/14 04:23:02;;;;;;;3.35;2.50;;;9.60;91.30;;;;;;4994303;28;20091;-69
2022/03/14 04:25:28;;;;;;;2.70;2.50;;;9.60;91.70;;;;;;4992528;28;20038;-69
2022/03/14 04:27:54;;;;;;;2.83;2.40;;;9.60;92.00;;;;;;4995635;28;20115;-69
2022/03/14 04:30:20;;;;;;;3.10;2.60;;;9.60;91.90;;;;;;4996951;28;20065;-69
2022/03/14 04:32:46;;;;;;;3.88;2.78;;;9.60;91.80;;;;;;5000240;28;20455;-69
2022/03/14 04:35:12;;;;;;;2.97;2.60;;;9.60;91.80;;;;;;4995833;28;20111;-69
2022/03/14 04:37:37;;;;;;;3.00;2.55;;;9.60;91.80;;;;;;4998693;28;20054;-69
2022/03/14 04:40:03;;;;;;;2.67;2.45;;;9.60;91.90;;;;;;5000013;28;20038;-69
2022/03/14 04:42:29;;;;;;;4.03;2.50;;;9.60;92.10;;;;;;5031405;28;20275;-69
2022/03/14 04:44:55;;;;;;;2.60;2.40;;;9.60;92.20;;;;;;4995940;28;20144;-68
2022/03/14 04:47:21;;;;;;;2.50;2.30;;;9.60;92.20;;;;;;5028426;28;20053;-69
2022/03/14 04:49:46;;;;;;;3.88;2.33;;;9.60;92.20;;;;;;4998367;28;20065;-69
2022/03/14 04:52:12;;;;;;;3.20;2.90;;;9.60;92.40;;;;;;4993350;28;20509;-69
2022/03/14 04:54:39;;;;;;;2.97;2.67;;;9.50;92.50;;;;;;4998498;28;20038;-69
2022/03/14 04:57:05;;;;;;;4.32;3.00;;;9.60;92.80;;;;;;4993059;28;20046;-68
2022/03/14 04:59:30;;;;;;;3.15;2.70;;;9.60;92.90;;;;;;5028670;28;20084;-68
2022/03/14 05:01:56;;;;;;;3.88;2.90;;;9.60;92.90;;;;;;4998465;28;20069;-69
2022/03/14 05:04:22;;;;;;;3.97;2.70;;;9.60;92.90;;;;;;4998017;28;20050;-69
2022/03/14 05:06:47;;;;;;;3.22;2.30;;;9.60;93.00;;;;;;5027451;28;20050;-69
2022/03/14 05:09:13;;;;;;;3.30;2.80;;;9.60;93.10;;;;;;4998075;28;20046;-69
2022/03/14 05:11:40;;;;;;;3.47;2.53;;;9.60;93.30;;;;;;4996836;28;20046;-69
2022/03/14 05:14:08;;;;;;;3.28;2.85;;;9.60;93.50;;;;;;4997754;28;20050;-69
2022/03/14 05:16:34;;;;;;;3.83;3.22;;;9.60;93.50;;;;;;4996529;28;20394;-69
2022/03/14 05:19:00;;;;;;;3.80;3.05;;;9.50;93.80;;;;;;4996494;28;20046;-69
2022/03/14 05:21:26;;;;;;;3.90;3.50;;;9.50;93.70;;;;;;4996289;28;20402;-68
2022/03/14 05:23:51;;;;;;;3.60;3.15;;;9.60;94.10;;;;;;4997782;28;20042;-69
2022/03/14 05:26:17;;;;;;;3.33;3.03;;;9.50;94.30;;;;;;5012170;28;20057;-68
2022/03/14 05:28:43;;;;;;;3.40;3.10;;;9.50;94.40;;;;;;5000239;28;20561;-69
2022/03/14 05:31:08;;;;;;;3.63;3.33;;;9.50;94.70;;;;;;4995602;28;20461;-68
2022/03/14 05:33:34;;;;;;;4.10;3.10;;;9.50;95.50;;;;;;4998102;28;20079;-68
2022/03/14 05:36:01;;;;;;;3.47;3.10;;;9.50;95.80;;;;;;4997081;28;20333;-68
2022/03/14 05:38:28;;;;;;;3.60;3.08;;;9.50;96.00;;;;;;4998981;28;20456;-68
2022/03/14 05:40:54;;;;;;;3.53;3.22;;;9.50;96.20;;;;;;4997361;28;20079;-68
2022/03/14 05:43:21;;;;;;;3.53;3.22;;;9.50;96.00;;;;;;4996491;28;20452;-68
2022/03/14 05:45:47;;;;;;;4.05;3.35;;;9.50;96.20;;;;;;4997436;28;20494;-68
2022/03/14 05:48:13;;;;;;;4.38;3.45;;;9.50;96.80;;;;;;4993207;28;20038;-68
2022/03/14 05:50:38;;;;;;;4.72;3.35;;;9.40;97.00;;;;;;4997728;28;20053;-68
2022/03/14 05:53:05;;;;;;;5.13;3.75;;;9.40;97.00;;;;;;4991951;28;20046;-68
2022/03/14 05:55:30;;;;;;;4.15;3.75;;;9.40;97.20;;;;;;4997422;28;20034;-68
2022/03/14 05:57:56;;;;;;;4.95;3.63;;;9.40;97.60;;;;;;5012063;28;20520;-68
2022/03/14 06:00:25;;;;;;;4.60;4.20;;;9.40;98.00;;;;;;5028772;28;20148;-68
2022/03/14 06:02:52;;;;;;;4.28;3.88;;;9.30;98.00;;;;;;5001546;28;20146;-68
2022/03/14 06:05:19;;;;;;;4.47;4.07;;;9.30;98.20;;;;;;4996256;28;20066;-68
2022/03/14 06:07:45;;;;;;;4.43;3.90;;;9.30;98.40;;;;;;5029851;28;20069;-68
2022/03/14 06:10:13;;;;;;;4.30;3.90;;;9.30;98.70;;;;;;5025532;28;20042;-68
2022/03/14 06:12:39;;;;;;;4.90;4.13;;;9.30;98.80;;;;;;4999787;28;20042;-68
2022/03/14 06:15:09;;;;;;;4.30;3.90;;;9.30;99.40;;;;;;5000811;28;20064;-68
2022/03/14 06:17:35;;;;;;;4.80;4.30;;;9.30;99.50;;;;;;4994636;28;20038;-68
2022/03/14 06:20:01;;;;;;;4.57;4.18;;;9.20;99.60;;;;;;5026959;28;20065;-68
2022/03/14 06:22:27;;;;;;;5.43;3.95;;;9.20;99.80;;;;;;4997707;28;20046;-68
2022/03/14 06:24:53;;;;;;;4.97;4.47;;;9.30;99.90;;;;;;5027973;28;20053;-68
2022/03/14 06:27:21;;;;;;;4.95;4.25;;;9.20;99.90;;;;;;4995404;28;20041;-68
2022/03/14 06:29:47;;;;;;;4.78;4.15;;;9.20;99.90;;;;;;5015237;28;20085;-68
2022/03/14 06:32:13;;;;;;;4.60;4.20;;;9.20;99.90;;;;;;4996114;28;20335;-68
2022/03/14 06:34:39;;;;;;;5.22;4.25;;;9.20;99.90;;;;;;4997289;28;20034;-68
2022/03/14 06:37:07;;;;;;;4.53;4.13;;;9.20;99.90;;;;;;4997999;28;20125;-68
2022/03/14 06:39:37;;;;;;;5.10;4.05;;;9.20;99.90;;;;;;4996936;28;20072;-67
2022/03/14 06:42:11;;;;;;;5.28;4.28;;;9.10;99.90;;;;;;4995521;28;20054;-68
2022/03/14 06:44:41;;;;;;;5.95;4.47;;;9.10;99.90;;;;;;5001241;28;20109;-68
2022/03/14 06:47:11;;;;;;;5.78;4.47;;;9.10;99.90;;;;;;4996830;28;20042;-68
2022/03/14 06:49:39;;;;;;;5.70;4.20;;;9.10;99.90;;;;;;5002986;28;20410;-68
2022/03/14 06:52:05;;;;;;;5.53;4.40;;;9.10;99.90;;;;;;5005045;28;20038;-68
2022/03/14 06:54:31;;;;;;;4.57;4.18;;;9.20;99.90;;;;;;4995917;28;20429;-68
2022/03/14 06:56:57;;;;;;;5.20;4.70;;;9.20;99.90;;;;;;5029753;28;20049;-68
2022/03/14 06:59:23;;;;;;;4.97;4.47;;;9.20;99.90;;;;;;5027525;28;20878;-68
2022/03/14 07:01:49;;;;;;;4.80;4.30;;;9.10;99.90;;;;;;5028757;28;20417;-68
2022/03/14 07:04:14;;;;;;;6.30;5.60;;;9.20;99.90;;;;;;4994936;28;20046;-68
2022/03/14 07:06:40;;;;;;;6.22;4.72;;;9.20;99.90;;;;;;4999855;28;20072;-68
2022/03/14 07:09:07;;;;;;;6.40;5.45;;;9.20;99.90;;;;;;4998127;28;20615;-68
2022/03/14 07:11:33;;;;;;;5.65;4.90;;;9.20;99.90;;;;;;4997473;28;20042;-68
2022/03/14 07:13:59;;;;;;;4.72;4.22;;;9.30;99.90;;;;;;4997762;28;20470;-68
2022/03/14 07:16:25;;;;;;;5.00;4.47;;;9.20;99.90;;;;;;4980453;28;20063;-68
2022/03/14 07:18:51;;;;;;;6.03;4.82;;;9.20;99.90;;;;;;5036823;28;20061;-68
2022/03/14 07:21:17;;;;;;;5.43;4.82;;;9.20;99.90;;;;;;5003421;28;20081;-68
2022/03/14 07:23:44;;;;;;;5.22;4.72;;;9.30;99.90;;;;;;4995566;28;20038;-68
2022/03/14 07:26:10;;;;;;;5.32;4.82;;;9.30;99.90;;;;;;4997992;28;20157;-68
2022/03/14 07:28:36;;;;;;;5.13;4.55;;;9.30;99.90;;;;;;5000930;28;20041;-68
2022/03/14 07:31:03;;;;;;;5.00;4.50;;;9.40;99.90;;;;;;5004115;28;20058;-68
2022/03/14 07:33:28;;;;;;;6.18;5.00;;;9.40;99.90;;;;;;4980222;28;20120;-68
2022/03/14 07:35:55;;;;;;;5.38;4.88;;;9.40;99.90;;;;;;4998503;28;20437;-68
2022/03/14 07:38:21;;;;;;;4.88;4.38;;;9.50;99.90;;;;;;4999501;28;20113;-67
2022/03/14 07:40:46;;;;;;;7.65;5.40;;;9.50;99.90;;;;;;4997248;28;20042;-68
2022/03/14 07:43:12;;;;;;;6.55;4.68;;;9.50;99.90;;;;;;5004883;28;20034;-68
2022/03/14 07:45:38;;;;;;;6.25;5.65;;;9.50;99.90;;;;;;4996257;28;20057;-68
2022/03/14 07:48:04;;;;;;;5.40;4.90;;;9.60;99.90;;;;;;5029175;28;20134;-68
2022/03/14 07:50:30;;;;;;;7.20;5.50;;;9.60;99.90;;;;;;4999108;28;20030;-68
2022/03/14 07:52:56;;;;;;;6.38;5.78;;;9.60;99.90;;;;;;5006268;28;20484;-68
2022/03/14 07:55:23;;;;;;;6.10;5.03;;;9.60;99.90;;;;;;4998473;28;20103;-68
2022/03/14 07:57:48;;;;;;;8.30;5.15;;;9.60;99.90;;;;;;5003679;28;20061;-68
2022/03/14 08:00:18;;;;;;;7.03;5.55;;;9.60;99.90;;;;;;4999445;28;20049;-68
2022/03/14 08:02:45;;;;;;;5.70;5.05;;;9.60;99.90;;;;;;4980318;28;20353;-68
2022/03/14 08:05:15;;;;;;;6.28;5.68;;;9.60;99.90;;;;;;5000495;28;20045;-68
2022/03/14 08:07:46;;;;;;;5.78;5.00;;;9.70;99.90;;;;;;5026604;28;20481;-68
2022/03/14 08:10:17;;;;;;;6.95;5.32;;;9.70;99.90;;;;;;5000306;28;20521;-68
2022/03/14 08:12:50;;;;;;;6.47;5.25;;;9.70;99.90;;;;;;5030779;28;20046;-68
2022/03/14 08:15:26;;;;;;;5.95;5.35;;;9.80;99.90;;;;;;4987313;28;20463;-67
2022/03/14 08:17:53;;;;;;;6.63;6.03;;;9.70;99.90;;;;;;5005354;28;20073;-67
2022/03/14 08:20:20;;;;;;;6.57;5.97;;;9.70;99.90;;;;;;5002273;28;20049;-67
2022/03/14 08:22:46;;;;;;;7.38;5.68;;;9.70;99.90;;;;;;5000724;28;20129;-67
2022/03/14 08:25:12;;;;;;;6.00;5.40;;;9.70;99.90;;;;;;5017486;28;20057;-68
2022/03/14 08:27:38;;;;;;;6.97;6.20;;;9.70;99.90;;;;;;4998763;28;20054;-67
2022/03/14 08:30:05;;;;;;;6.53;5.82;;;9.80;99.90;;;;;;5001715;28;20056;-68
2022/03/14 08:32:32;;;;;;;6.80;6.20;;;9.80;99.90;;;;;;5002005;28;20091;-67
2022/03/14 08:35:00;;;;;;;6.63;5.65;;;9.70;99.90;;;;;;5002557;28;20045;-67
2022/03/14 08:37:26;;;;;;;7.78;7.07;;;9.70;99.90;;;;;;5000888;28;20060;-67
2022/03/14 08:39:52;;;;;;;6.78;5.95;;;9.70;99.90;;;;;;5001396;28;20061;-68
2022/03/14 08:42:19;;;;;;;8.80;6.35;;;9.70;99.90;;;;;;5034647;28;20050;-68
2022/03/14 08:44:44;;;;;;;7.45;6.70;;;9.70;99.90;;;;;;5002878;28;20095;-68
2022/03/14 08:47:10;;;;;;;7.10;6.40;;;9.70;99.90;;;;;;4999118;28;20450;-67
2022/03/14 08:49:36;;;;;;;7.22;6.53;;;9.70;99.90;;;;;;4999442;28;20437;-67
2022/03/14 08:52:01;;;;;;;8.10;7.30;;;9.70;99.90;;;;;;5000765;28;20046;-67
2022/03/14 08:54:27;;;;;;;9.23;8.32;;;9.70;99.90;;;;;;5001824;28;20042;-68
2022/03/14 08:56:54;;;;;;;11.35;10.25;;;9.60;99.90;;;;;;5001978;28;20058;-68
2022/03/14 08:59:19;;;;;;;14.23;12.73;;;9.60;99.90;;;;;;4998643;28;20470;-68
2022/03/14 09:01:45;;;;;;;14.75;13.15;;;9.60;99.90;;;;;;5030476;28;20049;-68
2022/03/14 09:04:11;;;;;;;15.63;14.02;;;9.60;99.90;;;;;;5001654;28;20049;-68
2022/03/14 09:06:37;;;;;;;16.15;14.45;;;9.60;99.90;;;;;;5000300;28;20050;-68
2022/03/14 09:09:03;;;;;;;16.17;14.55;;;9.60;99.90;;;;;;4995699;28;20038;-68
2022/03/14 09:11:29;;;;;;;17.17;15.55;;;9.60;99.90;;;;;;4999863;28;20102;-68
2022/03/14 09:13:55;;;;;;;16.75;15.20;;;9.50;99.90;;;;;;4998774;28;20054;-68
2022/03/14 09:16:21;;;;;;;18.58;16.58;;;9.50;99.90;;;;;;4997690;28;20053;-68
2022/03/14 09:18:47;;;;;;;18.15;16.35;;;9.50;99.90;;;;;;5026022;28;20130;-68
2022/03/14 09:21:14;;;;;;;17.92;16.02;;;9.50;99.90;;;;;;4996690;28;20057;-68
2022/03/14 09:23:43;;;;;;;18.88;16.75;;;9.50;99.90;;;;;;4997695;28;20043;-68
2022/03/14 09:26:09;;;;;;;18.50;16.50;;;9.40;99.90;;;;;;4996919;28;20054;-68
2022/03/14 09:28:44;;;;;;;18.60;16.63;;;9.50;99.90;;;;;;4997297;28;20071;-68
2022/03/14 09:31:12;;;;;;;17.58;15.75;;;9.50;99.90;;;;;;4994799;28;20056;-68
2022/03/14 09:33:38;;;;;;;20.02;16.73;;;9.40;99.90;;;;;;5028655;28;20060;-68
2022/03/14 09:36:04;;;;;;;18.20;16.17;;;9.40;99.90;;;;;;4994372;28;20058;-68
2022/03/14 09:38:30;;;;;;;22.20;18.40;;;9.40;99.90;;;;;;5029289;28;20857;-68
2022/03/14 09:41:01;;;;;;;20.67;16.85;;;9.40;99.90;;;;;;4996341;28;20274;-68
2022/03/14 09:43:28;;;;;;;21.90;17.48;;;9.40;99.90;;;;;;5000457;28;20053;-69
2022/03/14 09:45:55;;;;;;;21.80;17.70;;;9.40;99.90;;;;;;4992959;28;20054;-68
2022/03/14 09:48:23;;;;;;;20.55;17.65;;;9.40;99.90;;;;;;5017585;28;20096;-68
2022/03/14 09:50:49;;;;;;;25.55;17.05;;;9.30;99.90;;;;;;5027532;28;20145;-69
2022/03/14 09:53:17;;;;;;;19.40;16.25;;;9.30;99.90;;;;;;4999605;28;20073;-68
2022/03/14 09:55:46;;;;;;;18.63;15.93;;;9.30;99.90;;;;;;5027530;28;20047;-68
2022/03/14 09:58:12;;;;;;;23.02;18.40;;;9.30;99.90;;;;;;4981786;28;20061;-69
2022/03/14 10:00:38;;;;;;;19.80;15.93;;;9.30;99.90;;;;;;5012720;28;20493;-69
2022/03/14 10:03:04;;;;;;;20.27;16.70;;;9.30;99.90;;;;;;4999194;28;20033;-68
2022/03/14 10:05:31;;;;;;;21.25;16.00;;;9.30;99.90;;;;;;4996978;28;20038;-68
2022/03/14 10:07:57;;;;;;;19.77;15.57;;;9.40;99.90;;;;;;4976142;28;20062;-68
2022/03/14 10:10:23;;;;;;;18.60;15.35;;;9.40;99.90;;;;;;5027225;28;20081;-68
2022/03/14 10:12:53;;;;;;;21.80;15.23;;;9.40;99.90;;;;;;4995239;28;20506;-68
2022/03/14 10:15:19;;;;;;;17.65;14.45;;;9.40;99.90;;;;;;5025882;28;20084;-68
2022/03/14 10:17:46;;;;;;;21.40;15.50;;;9.40;99.90;;;;;;4998627;28;20046;-68
2022/03/14 10:20:15;;;;;;;19.02;14.85;;;9.40;99.90;;;;;;5031502;28;20555;-68
2022/03/14 10:22:42;;;;;;;19.25;15.25;;;9.50;99.90;;;;;;4997853;28;20044;-68
2022/03/14 10:25:13;;;;;;;20.88;13.88;;;9.50;99.90;;;;;;5031540;28;20341;-69
2022/03/14 10:27:45;;;;;;;21.98;15.52;;;9.50;99.90;;;;;;5014510;28;20054;-68
2022/03/14 10:30:25;;;;;;;20.30;14.20;;;9.50;99.90;;;;;;5005321;28;20042;-68
2022/03/14 10:32:56;;;;;;;20.92;14.50;;;9.60;99.90;;;;;;4999890;28;20165;-68
2022/03/14 10:35:22;;;;;;;22.95;13.52;;;9.60;99.90;;;;;;5037696;28;20119;-68
2022/03/14 10:38:04;;;;;;;19.85;13.32;;;9.70;99.90;;;;;;5000443;28;20038;-68
2022/03/14 10:40:34;;;;;;;18.90;13.77;;;9.70;99.90;;;;;;5007386;28;20553;-68
2022/03/14 10:43:00;;;;;;;18.55;12.55;;;9.80;99.90;;;;;;5000233;28;20042;-68
2022/03/14 10:45:31;;;;;;;20.05;13.25;;;9.90;99.90;;;;;;4999899;28;20441;-68
2022/03/14 10:47:58;;;;;;;20.67;12.73;;;9.90;99.90;;;;;;4996150;28;20489;-68
2022/03/14 10:50:35;;;;;;;20.63;12.60;;;10.00;99.90;;;;;;5030400;28;20041;-68
2022/03/14 10:53:16;;;;;;;20.27;14.10;;;10.10;99.90;;;;;;4999335;28;20465;-68
2022/03/14 10:55:47;;;;;;;17.23;11.55;;;10.10;99.90;;;;;;5032055;28;20030;-68
2022/03/14 10:58:16;;;;;;;17.27;11.73;;;10.20;99.90;;;;;;5028396;28;20048;-69
2022/03/14 11:00:56;;;;;;;15.43;11.57;;;10.20;99.90;;;;;;4993212;28;20042;-69
2022/03/14 11:03:30;;;;;;;19.17;10.13;;;10.30;99.90;;;;;;4995777;28;20125;-68
2022/03/14 11:06:02;;;;;;;16.42;10.52;;;10.30;99.90;;;;;;5024278;28;20427;-68
2022/03/14 11:08:48;;;;;;;14.23;10.35;;;10.30;99.90;;;;;;4996644;28;20189;-68
2022/03/14 11:11:20;;;;;;;17.30;10.57;;;10.30;99.90;;;;;;4997425;28;20030;-68
2022/03/14 11:13:49;;;;;;;17.52;10.45;;;10.30;99.90;;;;;;4995696;28;20397;-68
2022/03/14 11:16:21;;;;;;;13.88;9.27;;;10.40;99.90;;;;;;5026608;28;20569;-68
2022/03/14 11:18:48;;;;;;;12.98;8.68;;;10.40;99.90;;;;;;5005198;28;20042;-68
2022/03/14 11:21:15;;;;;;;16.08;9.25;;;10.40;99.90;;;;;;5017776;28;20125;-68
2022/03/14 11:23:46;;;;;;;17.52;9.70;;;10.40;99.90;;;;;;4998051;28;20402;-68
2022/03/14 11:26:13;;;;;;;16.13;10.25;;;10.40;99.90;;;;;;4999248;28;20122;-68
2022/03/14 11:28:41;;;;;;;16.20;10.13;;;10.40;99.90;;;;;;5028212;28;20050;-68
2022/03/14 11:31:08;;;;;;;21.23;10.55;;;10.50;99.90;;;;;;4994040;28;20411;-68
2022/03/14 11:33:37;;;;;;;19.20;10.63;;;10.50;99.90;;;;;;4996891;28;20049;-68
2022/03/14 11:36:07;;;;;;;15.75;9.82;;;10.60;99.90;;;;;;4992648;28;20042;-68
2022/03/14 11:38:33;;;;;;;20.50;10.07;;;10.70;99.90;;;;;;5026860;28;20046;-68
2022/03/14 11:41:00;;;;;;;15.88;9.70;;;10.70;99.90;;;;;;5028684;28;20081;-68
2022/03/14 11:43:27;;;;;;;16.83;10.00;;;10.80;99.90;;;;;;5000700;28;20438;-68
2022/03/14 11:45:53;;;;;;;12.68;8.95;;;10.80;99.90;;;;;;5025003;28;20045;-68
2022/03/14 11:48:21;;;;;;;15.23;9.30;;;10.80;99.90;;;;;;5018155;28;20383;-68
2022/03/14 11:50:57;;;;;;;16.48;9.38;;;10.90;99.90;;;;;;4993901;28;20132;-68
2022/03/14 11:53:32;;;;;;;16.42;8.90;;;10.90;99.90;;;;;;4999763;28;20031;-68
2022/03/14 11:56:01;;;;;;;;;;;10.90;99.90;;;;;;4997892;28;20541;-68
2022/03/14 11:58:41;;;;;;;15.30;8.40;;;10.90;99.90;;;;;;4997180;28;19921;-68
2022/03/14 12:01:27;;;;;;;17.63;7.47;;;10.90;99.90;;;;;;4995127;28;20046;-68
2022/03/14 12:03:55;;;;;;;16.98;9.93;;;11.00;99.90;;;;;;4994346;28;20053;-68
2022/03/14 12:06:45;;;;;;;13.82;9.35;;;10.90;99.90;;;;;;4993369;28;21169;-68
2022/03/14 12:09:33;;;;;;;14.75;9.98;;;11.00;99.90;;;;;;4994282;28;20042;-67
2022/03/14 12:12:12;;;;;;;16.25;11.65;;;11.00;99.90;;;;;;5001620;28;20045;-67
2022/03/14 12:14:43;;;;;;;15.43;12.48;;;11.00;99.90;;;;;;5029752;28;20658;-67
2022/03/14 12:17:14;;;;;;;17.48;13.27;;;11.00;99.90;;;;;;4993185;28;20057;-67
2022/03/14 12:20:16;;;;;;;17.45;12.23;;;11.00;99.90;;;;;;5009468;28;20517;-68
2022/03/14 12:22:43;;;;;;;16.98;12.73;;;11.10;99.90;;;;;;4996418;28;20046;-68
2022/03/14 12:25:11;;;;;;;18.98;13.18;;;11.10;99.90;;;;;;4994178;28;20054;-68
2022/03/14 12:27:39;;;;;;;18.58;13.00;;;11.10;99.90;;;;;;4995199;28;20061;-68
2022/03/14 12:30:15;;;;;;;19.20;13.73;;;11.20;99.90;;;;;;5023853;28;20133;-68
2022/03/14 12:32:50;;;;;;;20.08;13.98;;;11.30;99.90;;;;;;4993532;28;20034;-68
2022/03/14 12:35:37;;;;;;;19.00;13.70;;;11.40;99.90;;;;;;5025614;28;20054;-69
2022/03/14 12:38:13;;;;;;;16.83;13.85;;;11.50;99.90;;;;;;4995195;28;20050;-69
2022/03/14 12:40:41;;;;;;;19.60;14.32;;;11.60;99.90;;;;;;4997793;28;20038;-69
2022/03/14 12:43:33;;;;;;;18.70;15.05;;;11.80;99.90;;;;;;5027021;28;20493;-69
2022/03/14 12:46:01;;;;;;;19.05;14.10;;;12.00;99.90;;;;;;4994539;28;20526;-68
2022/03/14 12:48:31;;;;;;;18.73;14.30;;;12.10;99.90;;;;;;4996134;28;20485;-68
2022/03/14 12:51:05;;;;;;;23.60;13.98;;;12.30;99.90;;;;;;5000239;28;20397;-68
2022/03/14 12:53:43;;;;;;;21.20;13.57;;;12.50;99.90;;;;;;4994700;28;20038;-68